sensor_id;sensor_type;location;lat;lon;timestamp;pressure;altitude;pressure_sealevel;temperature;humidity
44734;BME280;30462;52.446;-1.930;2023-12-07T00:00:14;99886.90234;;;;
44734;BME280;30462;52.446;-1.930;2023-12-07T00:01:14;99880.0625;;;;
44734;BME280;30462;52.446;-1.930;2023-12-07T00:02:14;99879.43359;;;;
44734;BME280;30462;52.446;-1.930;2023-12-07T00:03:14;99880.71875;;;;
44734;BME280;30462;52.446;-1.930;2023-12-07T00:04:14;99875.64063;;;;
44734;BME280;30462;52.446;-1.930;2023-12-07T00:05:13;99878.32813;;;;
44734;BME280;30462;52.446;-1.930;2023-12-07T00:06:14;99877.83984;;;;
44734;BME280;30462;52.446;-1.930;2023-12-07T00:07:14;99876.33984;;;;
44734;BME280;30462;52.446;-1.930;2023-12-07T00:08:14;99878.98047;;;;
44734;BME280;30462;52.446;-1.930;2023-12-07T00:09:14;99879.04688;;;;
44734;BME280;30462;52.446;-1.930;2023-12-07T00:10:14;99874.51172;;;;
44734;BME280;30462;52.446;-1.930;2023-12-07T00:11:14;99876.03516;;;;
44734;BME280;30462;52.446;-1.930;2023-12-07T00:12:14;99869.38672;;;;
44734;BME280;30462;52.446;-1.930;2023-12-07T00:13:14;99873.53906;;;;
44734;BME280;30462;52.446;-1.930;2023-12-07T00:14:13;99871.13281;;;;
44734;BME280;30462;52.446;-1.930;2023-12-07T00:15:13;99870.71875;;;;
44734;BME280;30462;52.446;-1.930;2023-12-07T00:16:13;99871.04688;;;;
44734;BME280;30462;52.446;-1.930;2023-12-07T00:17:14;99870.84766;;;;
44734;BME280;30462;52.446;-1.930;2023-12-07T00:18:14;99866.92578;;;;
44734;BME280;30462;52.446;-1.930;2023-12-07T00:19:14;99870.38281;;;;
44734;BME280;30462;52.446;-1.930;2023-12-07T00:20:14;99863.23828;;;;
44734;BME280;30462;52.446;-1.930;2023-12-07T00:21:14;99861.26563;;;;
44734;BME280;30462;52.446;-1.930;2023-12-07T00:22:14;99861.70313;;;;
44734;BME280;30462;52.446;-1.930;2023-12-07T00:23:14;99855.03125;;;;
44734;BME280;30462;52.446;-1.930;2023-12-07T00:24:14;99855.44922;;;;
44734;BME280;30462;52.446;-1.930;2023-12-07T00:25:14;99857.69141;;;;
44734;BME280;30462;52.446;-1.930;2023-12-07T00:26:14;99848.50781;;;;
44734;BME280;30462;52.446;-1.930;2023-12-07T00:27:14;99851.76563;;;;
44734;BME280;30462;52.446;-1.930;2023-12-07T00:28:13;99850.94531;;;;
44734;BME280;30462;52.446;-1.930;2023-12-07T00:29:14;99848.88672;;;;
44734;BME280;30462;52.446;-1.930;2023-12-07T00:30:14;99849.46484;;;;
44734;BME280;30462;52.446;-1.930;2023-12-07T00:31:13;99850.0625;;;;
44734;BME280;30462;52.446;-1.930;2023-12-07T00:32:14;99840.44531;;;;
44734;BME280;30462;52.446;-1.930;2023-12-07T00:33:15;99844.69141;;;;
44734;BME280;30462;52.446;-1.930;2023-12-07T00:34:14;99840.86328;;;;
44734;BME280;30462;52.446;-1.930;2023-12-07T00:35:14;99838.92969;;;;
44734;BME280;30462;52.446;-1.930;2023-12-07T00:36:14;99842.66797;;;;
44734;BME280;30462;52.446;-1.930;2023-12-07T00:37:14;99837.75;;;;
44734;BME280;30462;52.446;-1.930;2023-12-07T00:38:14;99839.06641;;;;
44734;BME280;30462;52.446;-1.930;2023-12-07T00:39:14;99837.17188;;;;
44734;BME280;30462;52.446;-1.930;2023-12-07T00:40:14;99835.66406;;;;
44734;BME280;30462;52.446;-1.930;2023-12-07T00:41:14;99832.99219;;;;
44734;BME280;30462;52.446;-1.930;2023-12-07T00:42:13;99839.48828;;;;
44734;BME280;30462;52.446;-1.930;2023-12-07T00:43:14;99838.55859;;;;
44734;BME280;30462;52.446;-1.930;2023-12-07T00:44:14;99833.90625;;;;
44734;BME280;30462;52.446;-1.930;2023-12-07T00:45:14;99832.85547;;;;
44734;BME280;30462;52.446;-1.930;2023-12-07T00:46:14;99835.5;;;;
44734;BME280;30462;52.446;-1.930;2023-12-07T00:47:14;99832.37109;;;;
44734;BME280;30462;52.446;-1.930;2023-12-07T00:48:14;99832.01953;;;;
44734;BME280;30462;52.446;-1.930;2023-12-07T00:49:13;99831.78906;;;;
44734;BME280;30462;52.446;-1.930;2023-12-07T00:50:14;99827.95703;;;;
44734;BME280;30462;52.446;-1.930;2023-12-07T00:51:14;99820.02344;;;;
44734;BME280;30462;52.446;-1.930;2023-12-07T00:52:14;99822.17969;;;;
44734;BME280;30462;52.446;-1.930;2023-12-07T00:53:14;99819.07422;;;;
44734;BME280;30462;52.446;-1.930;2023-12-07T00:54:14;99817.77734;;;;
44734;BME280;30462;52.446;-1.930;2023-12-07T00:55:14;99819.67578;;;;
44734;BME280;30462;52.446;-1.930;2023-12-07T00:56:14;99817.05078;;;;
44734;BME280;30462;52.446;-1.930;2023-12-07T00:57:14;99821.99609;;;;
44734;BME280;30462;52.446;-1.930;2023-12-07T00:58:14;99821.68359;;;;
44734;BME280;30462;52.446;-1.930;2023-12-07T00:59:14;99817.28125;;;;
44734;BME280;30462;52.446;-1.930;2023-12-07T01:00:14;99815.79297;;;;
44734;BME280;30462;52.446;-1.930;2023-12-07T01:01:13;99819.02734;;;;
44734;BME280;30462;52.446;-1.930;2023-12-07T01:02:13;99806.24609;;;;
44734;BME280;30462;52.446;-1.930;2023-12-07T01:03:13;99809.53125;;;;
44734;BME280;30462;52.446;-1.930;2023-12-07T01:04:13;99805.05469;;;;
44734;BME280;30462;52.446;-1.930;2023-12-07T01:05:14;99805.68359;;;;
44734;BME280;30462;52.446;-1.930;2023-12-07T01:06:14;99804.96094;;;;
44734;BME280;30462;52.446;-1.930;2023-12-07T01:07:14;99803.25391;;;;
44734;BME280;30462;52.446;-1.930;2023-12-07T01:08:13;99795.55859;;;;
44734;BME280;30462;52.446;-1.930;2023-12-07T01:09:14;99791.75;;;;
44734;BME280;30462;52.446;-1.930;2023-12-07T01:10:14;99794.65625;;;;
44734;BME280;30462;52.446;-1.930;2023-12-07T01:11:14;99795.14453;;;;
44734;BME280;30462;52.446;-1.930;2023-12-07T01:12:14;99793.21484;;;;
44734;BME280;30462;52.446;-1.930;2023-12-07T01:13:14;99798.29688;;;;
44734;BME280;30462;52.446;-1.930;2023-12-07T01:14:14;99796;;;;
44734;BME280;30462;52.446;-1.930;2023-12-07T01:15:14;99801.21484;;;;
44734;BME280;30462;52.446;-1.930;2023-12-07T01:16:14;99801.69531;;;;
44734;BME280;30462;52.446;-1.930;2023-12-07T01:17:14;99800.80469;;;;
44734;BME280;30462;52.446;-1.930;2023-12-07T01:18:14;99798.37109;;;;
44734;BME280;30462;52.446;-1.930;2023-12-07T01:19:13;99804.07813;;;;
44734;BME280;30462;52.446;-1.930;2023-12-07T01:20:14;99793.80469;;;;
44734;BME280;30462;52.446;-1.930;2023-12-07T01:21:14;99792.14453;;;;
44734;BME280;30462;52.446;-1.930;2023-12-07T01:22:14;99790.82031;;;;
44734;BME280;30462;52.446;-1.930;2023-12-07T01:23:15;99791.93359;;;;
44734;BME280;30462;52.446;-1.930;2023-12-07T01:24:16;99789.66797;;;;
44734;BME280;30462;52.446;-1.930;2023-12-07T01:25:14;99787.375;;;;
44734;BME280;30462;52.446;-1.930;2023-12-07T01:26:13;99784.58203;;;;
44734;BME280;30462;52.446;-1.930;2023-12-07T01:27:14;99781.36719;;;;
44734;BME280;30462;52.446;-1.930;2023-12-07T01:28:14;99777;;;;
44734;BME280;30462;52.446;-1.930;2023-12-07T01:29:14;99773.375;;;;
44734;BME280;30462;52.446;-1.930;2023-12-07T01:30:14;99771.98047;;;;
44734;BME280;30462;52.446;-1.930;2023-12-07T01:31:14;99765.73047;;;;
44734;BME280;30462;52.446;-1.930;2023-12-07T01:32:14;99764.70703;;;;
44734;BME280;30462;52.446;-1.930;2023-12-07T01:33:13;99764.02734;;;;
44734;BME280;30462;52.446;-1.930;2023-12-07T01:34:15;99756.90625;;;;
44734;BME280;30462;52.446;-1.930;2023-12-07T01:35:14;99761.88281;;;;
44734;BME280;30462;52.446;-1.930;2023-12-07T01:36:14;99756.39844;;;;
44734;BME280;30462;52.446;-1.930;2023-12-07T01:37:14;99756.82422;;;;
44734;BME280;30462;52.446;-1.930;2023-12-07T01:38:14;99758.95703;;;;
44734;BME280;30462;52.446;-1.930;2023-12-07T01:39:14;99754.03906;;;;
44734;BME280;30462;52.446;-1.930;2023-12-07T01:40:14;99758.11328;;;;
44734;BME280;30462;52.446;-1.930;2023-12-07T01:41:14;99750.30469;;;;
44734;BME280;30462;52.446;-1.930;2023-12-07T01:42:14;99752.28516;;;;
44734;BME280;30462;52.446;-1.930;2023-12-07T01:43:13;99751.38672;;;;
44734;BME280;30462;52.446;-1.930;2023-12-07T01:44:13;99746.83594;;;;
44734;BME280;30462;52.446;-1.930;2023-12-07T01:45:13;99745.86328;;;;
44734;BME280;30462;52.446;-1.930;2023-12-07T01:46:15;99742.74609;;;;
44734;BME280;30462;52.446;-1.930;2023-12-07T01:47:14;99742.13281;;;;
44734;BME280;30462;52.446;-1.930;2023-12-07T01:48:14;99736.06641;;;;
44734;BME280;30462;52.446;-1.930;2023-12-07T01:49:14;99731.41406;;;;
44734;BME280;30462;52.446;-1.930;2023-12-07T01:50:14;99735.49219;;;;
44734;BME280;30462;52.446;-1.930;2023-12-07T01:51:14;99730.79297;;;;
44734;BME280;30462;52.446;-1.930;2023-12-07T01:52:14;99732.23438;;;;
44734;BME280;30462;52.446;-1.930;2023-12-07T01:53:14;99732.32031;;;;
44734;BME280;30462;52.446;-1.930;2023-12-07T01:54:14;99731.97656;;;;
44734;BME280;30462;52.446;-1.930;2023-12-07T01:55:14;99729.07813;;;;
44734;BME280;30462;52.446;-1.930;2023-12-07T01:56:14;99733.27344;;;;
44734;BME280;30462;52.446;-1.930;2023-12-07T01:57:14;99729.99609;;;;
44734;BME280;30462;52.446;-1.930;2023-12-07T01:58:14;99731.09766;;;;
44734;BME280;30462;52.446;-1.930;2023-12-07T01:59:13;99729.375;;;;
44734;BME280;30462;52.446;-1.930;2023-12-07T02:00:14;99728.32813;;;;
44734;BME280;30462;52.446;-1.930;2023-12-07T02:01:14;99727.92578;;;;
44734;BME280;30462;52.446;-1.930;2023-12-07T02:02:14;99717.48828;;;;
44734;BME280;30462;52.446;-1.930;2023-12-07T02:03:14;99722.58984;;;;
44734;BME280;30462;52.446;-1.930;2023-12-07T02:04:13;99713.05469;;;;
44734;BME280;30462;52.446;-1.930;2023-12-07T02:05:14;99718.75;;;;
44734;BME280;30462;52.446;-1.930;2023-12-07T02:06:14;99713.99219;;;;
44734;BME280;30462;52.446;-1.930;2023-12-07T02:07:14;99702.76563;;;;
44734;BME280;30462;52.446;-1.930;2023-12-07T02:08:14;99711.46484;;;;
44734;BME280;30462;52.446;-1.930;2023-12-07T02:09:13;99705.6875;;;;
44734;BME280;30462;52.446;-1.930;2023-12-07T02:10:14;99711.90625;;;;
44734;BME280;30462;52.446;-1.930;2023-12-07T02:11:14;99710.17188;;;;
44734;BME280;30462;52.446;-1.930;2023-12-07T02:12:14;99707.03516;;;;
44734;BME280;30462;52.446;-1.930;2023-12-07T02:13:14;99706.19141;;;;
44734;BME280;30462;52.446;-1.930;2023-12-07T02:14:14;99705.74219;;;;
44734;BME280;30462;52.446;-1.930;2023-12-07T02:15:14;99710.48047;;;;
44734;BME280;30462;52.446;-1.930;2023-12-07T02:16:15;99703.29688;;;;
44734;BME280;30462;52.446;-1.930;2023-12-07T02:17:18;99708.43359;;;;
44734;BME280;30462;52.446;-1.930;2023-12-07T02:18:16;99706.16797;;;;
44734;BME280;30462;52.446;-1.930;2023-12-07T02:20:20;99701.89063;;;;
44734;BME280;30462;52.446;-1.930;2023-12-07T02:21:19;99702.89453;;;;
44734;BME280;30462;52.446;-1.930;2023-12-07T02:22:18;99698.22266;;;;
44734;BME280;30462;52.446;-1.930;2023-12-07T02:23:14;99695.09766;;;;
44734;BME280;30462;52.446;-1.930;2023-12-07T02:24:15;99699.41797;;;;
44734;BME280;30462;52.446;-1.930;2023-12-07T02:25:14;99698.61719;;;;
44734;BME280;30462;52.446;-1.930;2023-12-07T02:26:14;99697.60156;;;;
44734;BME280;30462;52.446;-1.930;2023-12-07T02:27:14;99697.37109;;;;
44734;BME280;30462;52.446;-1.930;2023-12-07T02:28:13;99695.98438;;;;
44734;BME280;30462;52.446;-1.930;2023-12-07T02:29:14;99693.00781;;;;
44734;BME280;30462;52.446;-1.930;2023-12-07T02:30:14;99693.71094;;;;
44734;BME280;30462;52.446;-1.930;2023-12-07T02:31:13;99687.56641;;;;
44734;BME280;30462;52.446;-1.930;2023-12-07T02:32:14;99691.93359;;;;
44734;BME280;30462;52.446;-1.930;2023-12-07T02:33:14;99682.59766;;;;
44734;BME280;30462;52.446;-1.930;2023-12-07T02:34:14;99677.89063;;;;
44734;BME280;30462;52.446;-1.930;2023-12-07T02:35:14;99675.70703;;;;
44734;BME280;30462;52.446;-1.930;2023-12-07T02:36:14;99670.42188;;;;
44734;BME280;30462;52.446;-1.930;2023-12-07T02:37:14;99670.85938;;;;
44734;BME280;30462;52.446;-1.930;2023-12-07T02:38:14;99670.91406;;;;
44734;BME280;30462;52.446;-1.930;2023-12-07T02:39:14;99669.16406;;;;
44734;BME280;30462;52.446;-1.930;2023-12-07T02:40:17;99667.86719;;;;
44734;BME280;30462;52.446;-1.930;2023-12-07T02:41:14;99668.48047;;;;
44734;BME280;30462;52.446;-1.930;2023-12-07T02:42:14;99671.14063;;;;
44734;BME280;30462;52.446;-1.930;2023-12-07T02:43:14;99674.05859;;;;
44734;BME280;30462;52.446;-1.930;2023-12-07T02:44:14;99678.61719;;;;
44734;BME280;30462;52.446;-1.930;2023-12-07T02:45:14;99670.11328;;;;
44734;BME280;30462;52.446;-1.930;2023-12-07T02:46:14;99671.46484;;;;
44734;BME280;30462;52.446;-1.930;2023-12-07T02:47:14;99665.41797;;;;
44734;BME280;30462;52.446;-1.930;2023-12-07T02:48:14;99666.49219;;;;
44734;BME280;30462;52.446;-1.930;2023-12-07T02:49:14;99667.24609;;;;
44734;BME280;30462;52.446;-1.930;2023-12-07T02:50:14;99661.83594;;;;
44734;BME280;30462;52.446;-1.930;2023-12-07T02:51:14;99657.35156;;;;
44734;BME280;30462;52.446;-1.930;2023-12-07T02:52:13;99659.99219;;;;
44734;BME280;30462;52.446;-1.930;2023-12-07T02:53:14;99657.91797;;;;
44734;BME280;30462;52.446;-1.930;2023-12-07T02:54:14;99654.14844;;;;
44734;BME280;30462;52.446;-1.930;2023-12-07T02:55:14;99655.41797;;;;
44734;BME280;30462;52.446;-1.930;2023-12-07T02:56:14;99656.39453;;;;
44734;BME280;30462;52.446;-1.930;2023-12-07T02:57:14;99657.01953;;;;
44734;BME280;30462;52.446;-1.930;2023-12-07T02:58:13;99649.87109;;;;
44734;BME280;30462;52.446;-1.930;2023-12-07T02:59:14;99653.39844;;;;
44734;BME280;30462;52.446;-1.930;2023-12-07T03:00:14;99656.73828;;;;
44734;BME280;30462;52.446;-1.930;2023-12-07T03:01:14;99647.53516;;;;
44734;BME280;30462;52.446;-1.930;2023-12-07T03:02:14;99650.125;;;;
44734;BME280;30462;52.446;-1.930;2023-12-07T03:03:14;99649.71094;;;;
44734;BME280;30462;52.446;-1.930;2023-12-07T03:04:14;99646.12891;;;;
44734;BME280;30462;52.446;-1.930;2023-12-07T03:05:14;99643.03516;;;;
44734;BME280;30462;52.446;-1.930;2023-12-07T03:06:13;99641.20703;;;;
44734;BME280;30462;52.446;-1.930;2023-12-07T03:07:13;99643.60156;;;;
44734;BME280;30462;52.446;-1.930;2023-12-07T03:08:14;99641.96094;;;;
44734;BME280;30462;52.446;-1.930;2023-12-07T03:09:14;99640.32031;;;;
44734;BME280;30462;52.446;-1.930;2023-12-07T03:10:14;99638.98438;;;;
44734;BME280;30462;52.446;-1.930;2023-12-07T03:11:14;99636.625;;;;
44734;BME280;30462;52.446;-1.930;2023-12-07T03:12:13;99633.15234;;;;
44734;BME280;30462;52.446;-1.930;2023-12-07T03:13:14;99628.50781;;;;
44734;BME280;30462;52.446;-1.930;2023-12-07T03:14:14;99627.59766;;;;
44734;BME280;30462;52.446;-1.930;2023-12-07T03:15:14;99626.85156;;;;
44734;BME280;30462;52.446;-1.930;2023-12-07T03:16:14;99622.92969;;;;
44734;BME280;30462;52.446;-1.930;2023-12-07T03:17:14;99616.66016;;;;
44734;BME280;30462;52.446;-1.930;2023-12-07T03:18:13;99614.5625;;;;
44734;BME280;30462;52.446;-1.930;2023-12-07T03:19:13;99617.53906;;;;
44734;BME280;30462;52.446;-1.930;2023-12-07T03:20:14;99613.78516;;;;
44734;BME280;30462;52.446;-1.930;2023-12-07T03:21:14;99610.4375;;;;
44734;BME280;30462;52.446;-1.930;2023-12-07T03:22:14;99603.98438;;;;
44734;BME280;30462;52.446;-1.930;2023-12-07T03:23:14;99609.01953;;;;
44734;BME280;30462;52.446;-1.930;2023-12-07T03:24:13;99606.94141;;;;
44734;BME280;30462;52.446;-1.930;2023-12-07T03:25:14;99602.08594;;;;
44734;BME280;30462;52.446;-1.930;2023-12-07T03:26:14;99603.01172;;;;
44734;BME280;30462;52.446;-1.930;2023-12-07T03:27:14;99603.67578;;;;
44734;BME280;30462;52.446;-1.930;2023-12-07T03:28:14;99604.84766;;;;
44734;BME280;30462;52.446;-1.930;2023-12-07T03:29:14;99595.69922;;;;
44734;BME280;30462;52.446;-1.930;2023-12-07T03:30:14;99598.21484;;;;
44734;BME280;30462;52.446;-1.930;2023-12-07T03:31:13;99586.9375;;;;
44734;BME280;30462;52.446;-1.930;2023-12-07T03:32:14;99585.52734;;;;
44734;BME280;30462;52.446;-1.930;2023-12-07T03:33:14;99586.90625;;;;
44734;BME280;30462;52.446;-1.930;2023-12-07T03:34:14;99587.10156;;;;
44734;BME280;30462;52.446;-1.930;2023-12-07T03:35:14;99585.73438;;;;
44734;BME280;30462;52.446;-1.930;2023-12-07T03:36:13;99583.30078;;;;
44734;BME280;30462;52.446;-1.930;2023-12-07T03:37:14;99582.94141;;;;
44734;BME280;30462;52.446;-1.930;2023-12-07T03:38:14;99583.25391;;;;
44734;BME280;30462;52.446;-1.930;2023-12-07T03:39:14;99581.94922;;;;
44734;BME280;30462;52.446;-1.930;2023-12-07T03:40:14;99581.93359;;;;
44734;BME280;30462;52.446;-1.930;2023-12-07T03:41:14;99575.4375;;;;
44734;BME280;30462;52.446;-1.930;2023-12-07T03:42:17;99581.38281;;;;
44734;BME280;30462;52.446;-1.930;2023-12-07T03:43:16;99582.13281;;;;
44734;BME280;30462;52.446;-1.930;2023-12-07T03:44:14;99580.94141;;;;
44734;BME280;30462;52.446;-1.930;2023-12-07T03:45:14;99576.83594;;;;
44734;BME280;30462;52.446;-1.930;2023-12-07T03:46:14;99572.64063;;;;
44734;BME280;30462;52.446;-1.930;2023-12-07T03:47:14;99573.37109;;;;
44734;BME280;30462;52.446;-1.930;2023-12-07T03:48:14;99564.54688;;;;
44734;BME280;30462;52.446;-1.930;2023-12-07T03:49:13;99560.29297;;;;
44734;BME280;30462;52.446;-1.930;2023-12-07T03:50:14;99558.35938;;;;
44734;BME280;30462;52.446;-1.930;2023-12-07T03:51:14;99560.58203;;;;
44734;BME280;30462;52.446;-1.930;2023-12-07T03:52:14;99557.90234;;;;
44734;BME280;30462;52.446;-1.930;2023-12-07T03:53:14;99551.82813;;;;
44734;BME280;30462;52.446;-1.930;2023-12-07T03:54:13;99552.96484;;;;
44734;BME280;30462;52.446;-1.930;2023-12-07T03:55:13;99547.97656;;;;
44734;BME280;30462;52.446;-1.930;2023-12-07T03:57:14;99550.20313;;;;
44734;BME280;30462;52.446;-1.930;2023-12-07T03:58:14;99544.57813;;;;
44734;BME280;30462;52.446;-1.930;2023-12-07T03:59:14;99536.45313;;;;
44734;BME280;30462;52.446;-1.930;2023-12-07T04:00:14;99539.78516;;;;
44734;BME280;30462;52.446;-1.930;2023-12-07T04:01:14;99542.88281;;;;
44734;BME280;30462;52.446;-1.930;2023-12-07T04:02:14;99545.40625;;;;
44734;BME280;30462;52.446;-1.930;2023-12-07T04:03:14;99535.81641;;;;
44734;BME280;30462;52.446;-1.930;2023-12-07T04:04:14;99538.08984;;;;
44734;BME280;30462;52.446;-1.930;2023-12-07T04:05:14;99537.03516;;;;
44734;BME280;30462;52.446;-1.930;2023-12-07T04:06:13;99535.48047;;;;
44734;BME280;30462;52.446;-1.930;2023-12-07T04:07:14;99528.39453;;;;
44734;BME280;30462;52.446;-1.930;2023-12-07T04:08:14;99540.20703;;;;
44734;BME280;30462;52.446;-1.930;2023-12-07T04:09:14;99530.82031;;;;
44734;BME280;30462;52.446;-1.930;2023-12-07T04:10:14;99522.9375;;;;
44734;BME280;30462;52.446;-1.930;2023-12-07T04:11:14;99528.86719;;;;
44734;BME280;30462;52.446;-1.930;2023-12-07T04:12:14;99524.65625;;;;
44734;BME280;30462;52.446;-1.930;2023-12-07T04:13:14;99519.11328;;;;
44734;BME280;30462;52.446;-1.930;2023-12-07T04:14:13;99525.74609;;;;
44734;BME280;30462;52.446;-1.930;2023-12-07T04:15:14;99527.22266;;;;
44734;BME280;30462;52.446;-1.930;2023-12-07T04:16:13;99521.62891;;;;
44734;BME280;30462;52.446;-1.930;2023-12-07T04:17:14;99528.61719;;;;
44734;BME280;30462;52.446;-1.930;2023-12-07T04:18:14;99517.50781;;;;
44734;BME280;30462;52.446;-1.930;2023-12-07T04:19:14;99511.98047;;;;
44734;BME280;30462;52.446;-1.930;2023-12-07T04:20:14;99524.89453;;;;
44734;BME280;30462;52.446;-1.930;2023-12-07T04:21:13;99518.98047;;;;
44734;BME280;30462;52.446;-1.930;2023-12-07T04:22:14;99515.79297;;;;
44734;BME280;30462;52.446;-1.930;2023-12-07T04:23:14;99516.01953;;;;
44734;BME280;30462;52.446;-1.930;2023-12-07T04:24:14;99516.88672;;;;
44734;BME280;30462;52.446;-1.930;2023-12-07T04:25:14;99513.03516;;;;
44734;BME280;30462;52.446;-1.930;2023-12-07T04:26:14;99507.51172;;;;
44734;BME280;30462;52.446;-1.930;2023-12-07T04:27:13;99508.44531;;;;
44734;BME280;30462;52.446;-1.930;2023-12-07T04:28:14;99502.35938;;;;
44734;BME280;30462;52.446;-1.930;2023-12-07T04:29:14;99500.76563;;;;
44734;BME280;30462;52.446;-1.930;2023-12-07T04:30:14;99499.88672;;;;
44734;BME280;30462;52.446;-1.930;2023-12-07T04:31:14;99494.24609;;;;
44734;BME280;30462;52.446;-1.930;2023-12-07T04:32:14;99495.88672;;;;
44734;BME280;30462;52.446;-1.930;2023-12-07T04:33:14;99488.82031;;;;
44734;BME280;30462;52.446;-1.930;2023-12-07T04:34:14;99494.58594;;;;
44734;BME280;30462;52.446;-1.930;2023-12-07T04:35:14;99493.55078;;;;
44734;BME280;30462;52.446;-1.930;2023-12-07T04:36:14;99487.58984;;;;
44734;BME280;30462;52.446;-1.930;2023-12-07T04:37:14;99493.23047;;;;
44734;BME280;30462;52.446;-1.930;2023-12-07T04:38:14;99496.45313;;;;
44734;BME280;30462;52.446;-1.930;2023-12-07T04:39:14;99500.07422;;;;
44734;BME280;30462;52.446;-1.930;2023-12-07T04:40:14;99487.65625;;;;
44734;BME280;30462;52.446;-1.930;2023-12-07T04:41:14;99492.30859;;;;
44734;BME280;30462;52.446;-1.930;2023-12-07T04:42:14;99482.90234;;;;
44734;BME280;30462;52.446;-1.930;2023-12-07T04:43:14;99476.25391;;;;
44734;BME280;30462;52.446;-1.930;2023-12-07T04:44:14;99464.80469;;;;
44734;BME280;30462;52.446;-1.930;2023-12-07T04:45:14;99462.45703;;;;
44734;BME280;30462;52.446;-1.930;2023-12-07T04:46:14;99460.73438;;;;
44734;BME280;30462;52.446;-1.930;2023-12-07T04:47:14;99449.10547;;;;
44734;BME280;30462;52.446;-1.930;2023-12-07T04:48:14;99448.67969;;;;
44734;BME280;30462;52.446;-1.930;2023-12-07T04:49:14;99443.45313;;;;
44734;BME280;30462;52.446;-1.930;2023-12-07T04:50:14;99446.29297;;;;
44734;BME280;30462;52.446;-1.930;2023-12-07T04:51:14;99444.78906;;;;
44734;BME280;30462;52.446;-1.930;2023-12-07T04:52:13;99450.83594;;;;
44734;BME280;30462;52.446;-1.930;2023-12-07T04:53:14;99444.00781;;;;
44734;BME280;30462;52.446;-1.930;2023-12-07T04:54:16;99443.64844;;;;
44734;BME280;30462;52.446;-1.930;2023-12-07T04:55:14;99445.15234;;;;
44734;BME280;30462;52.446;-1.930;2023-12-07T04:56:14;99442.97656;;;;
44734;BME280;30462;52.446;-1.930;2023-12-07T04:57:14;99445.58594;;;;
44734;BME280;30462;52.446;-1.930;2023-12-07T04:58:13;99439.39063;;;;
44734;BME280;30462;52.446;-1.930;2023-12-07T04:59:13;99446.01953;;;;
44734;BME280;30462;52.446;-1.930;2023-12-07T05:00:14;99445.20313;;;;
44734;BME280;30462;52.446;-1.930;2023-12-07T05:01:14;99442.96875;;;;
44734;BME280;30462;52.446;-1.930;2023-12-07T05:02:14;99450.93359;;;;
44734;BME280;30462;52.446;-1.930;2023-12-07T05:03:13;99448.09375;;;;
44734;BME280;30462;52.446;-1.930;2023-12-07T05:04:14;99444.46875;;;;
44734;BME280;30462;52.446;-1.930;2023-12-07T05:05:14;99442.73047;;;;
44734;BME280;30462;52.446;-1.930;2023-12-07T05:06:14;99444.03125;;;;
44734;BME280;30462;52.446;-1.930;2023-12-07T05:07:14;99434.46875;;;;
44734;BME280;30462;52.446;-1.930;2023-12-07T05:08:14;99444.21484;;;;
44734;BME280;30462;52.446;-1.930;2023-12-07T05:09:14;99441.73047;;;;
44734;BME280;30462;52.446;-1.930;2023-12-07T05:10:14;99437.58984;;;;
44734;BME280;30462;52.446;-1.930;2023-12-07T05:11:14;99436.71875;;;;
44734;BME280;30462;52.446;-1.930;2023-12-07T05:12:14;99439.79297;;;;
44734;BME280;30462;52.446;-1.930;2023-12-07T05:13:13;99435.37109;;;;
44734;BME280;30462;52.446;-1.930;2023-12-07T05:14:14;99433.41797;;;;
44734;BME280;30462;52.446;-1.930;2023-12-07T05:15:14;99435.00781;;;;
44734;BME280;30462;52.446;-1.930;2023-12-07T05:16:14;99441.38281;;;;
44734;BME280;30462;52.446;-1.930;2023-12-07T05:17:14;99444.60938;;;;
44734;BME280;30462;52.446;-1.930;2023-12-07T05:18:14;99452.78906;;;;
44734;BME280;30462;52.446;-1.930;2023-12-07T05:19:13;99444.01172;;;;
44734;BME280;30462;52.446;-1.930;2023-12-07T05:20:14;99444.16406;;;;
44734;BME280;30462;52.446;-1.930;2023-12-07T05:21:14;99436.70703;;;;
44734;BME280;30462;52.446;-1.930;2023-12-07T05:22:14;99434.55859;;;;
44734;BME280;30462;52.446;-1.930;2023-12-07T05:23:14;99441.26563;;;;
44734;BME280;30462;52.446;-1.930;2023-12-07T05:24:14;99431.58984;;;;
44734;BME280;30462;52.446;-1.930;2023-12-07T05:25:13;99431.69141;;;;
44734;BME280;30462;52.446;-1.930;2023-12-07T05:26:14;99423.76563;;;;
44734;BME280;30462;52.446;-1.930;2023-12-07T05:27:14;99429.26953;;;;
44734;BME280;30462;52.446;-1.930;2023-12-07T05:28:14;99426.91016;;;;
44734;BME280;30462;52.446;-1.930;2023-12-07T05:29:14;99422.41797;;;;
44734;BME280;30462;52.446;-1.930;2023-12-07T05:30:14;99429.92188;;;;
44734;BME280;30462;52.446;-1.930;2023-12-07T05:31:15;99419.49219;;;;
44734;BME280;30462;52.446;-1.930;2023-12-07T05:32:14;99419.15234;;;;
44734;BME280;30462;52.446;-1.930;2023-12-07T05:33:14;99412.92578;;;;
44734;BME280;30462;52.446;-1.930;2023-12-07T05:34:14;99415.82813;;;;
44734;BME280;30462;52.446;-1.930;2023-12-07T05:35:14;99415.90234;;;;
44734;BME280;30462;52.446;-1.930;2023-12-07T05:36:14;99403.32031;;;;
44734;BME280;30462;52.446;-1.930;2023-12-07T05:37:14;99405.30078;;;;
44734;BME280;30462;52.446;-1.930;2023-12-07T05:38:14;99403.49609;;;;
44734;BME280;30462;52.446;-1.930;2023-12-07T05:39:14;99410.19922;;;;
44734;BME280;30462;52.446;-1.930;2023-12-07T05:40:14;99403.91016;;;;
44734;BME280;30462;52.446;-1.930;2023-12-07T05:41:14;99401.91016;;;;
44734;BME280;30462;52.446;-1.930;2023-12-07T05:42:14;99397.76953;;;;
44734;BME280;30462;52.446;-1.930;2023-12-07T05:43:14;99401.10156;;;;
44734;BME280;30462;52.446;-1.930;2023-12-07T05:44:14;99405.18359;;;;
44734;BME280;30462;52.446;-1.930;2023-12-07T05:45:14;99392.55469;;;;
44734;BME280;30462;52.446;-1.930;2023-12-07T05:46:14;99390.01563;;;;
44734;BME280;30462;52.446;-1.930;2023-12-07T05:47:13;99393.75781;;;;